Share

McGrath, AK

11:12 AM AKDT on April 24, 2014 (GMT -0800)
Nikolai AP, Nikolai, AK (PAFS) Elev 413 ft | 63.02 °N, 154.36 °W | Change Station

Current weather conditions updated 16 minutes ago

Scattered Clouds
Scattered Clouds
42 °F
Feels Like 38 °F
N
7
Wind Variable Wind from SW
Sunrise 6:22 AM
Sunset 10:15 PM
Moon Waning Crescent

Today is forecast to be Cooler than yesterday.

Pressure 29.66 in
Visibility 10.0 miles
Clouds Scattered Clouds 1800 ft
Windchill 38 °F
Dew Point 34 °F
Humidity 73%
Rainfall 0.01 in
Snow Depth Not available.
UV 2 out of 16
Pollen Not available.
Air Quality Not available.
Flu Activity Sporadic
METAR PAFS 241856Z AUTO 22006KT 10SM SCT018 06/01 A2963 RMK AO2 TSNO T00550011 SLP043 $

More Conditions Fewer Conditions

Pressure 29.66 in
Visibility 10.0 miles
Clouds Scattered Clouds 1800 ft
Windchill 38 °F
Dew Point 34 °F
Humidity 73%
Rainfall 0.01 in
Snow Depth Not available.
UV 2 out of 16
Pollen Not available.
Air Quality Not available.
Flu Activity Sporadic
METAR PAFS 241856Z AUTO 22006KT 10SM SCT018 06/01 A2963 RMK AO2 TSNO T00550011 SLP043 $

More Conditions Fewer Conditions

10-Day Weather Forecast

Almanac

Astronomy

Apr. 24, 2014 Rise Set
Actual Time 6:22 AM AKDT 10:15 PM AKDT
Civil Twilight 5:24 AM AKDT 11:13 PM AKDT
Nautical Twilight 3:51 AM AKDT 12:50 AM AKDT
Astronomical Twilight Sun does not rise Sun does not rise
Moon 5:15 AM AKDT 4:15 PM AKDT
Length of Visible Light 17h 48m
Length of Day
15h 52m
Tomorrow will be 6m 12s longer.
Waning Crescent, 23% of the Moon is Illuminated
Today
Waning Crescent
Apr 29
New
May 6
First Quarter
May 14
Full
May 21
Last Quarter

Today's Extremes

State Highs State Lows

Community

  • Sunset at Apalachicola Bay, Florida
    Sunset at Apalachicola Bay, Florida
  • Clouds mov'n in
    Clouds mov'n in
  • Stacked
    Stacked
  • clouds approaching Red Sox Nation
    clouds approaching Red Sox Nation
  • Balance
    Balance

WunderPhotos

Upload Photos

1,704,699 photos uploaded!

Nearby

Snow Depth

Station Depth Elevation
Susitna Valley High 12 in 375 ft
Point Mackenzie 2 in 200 ft
Indian Pass 43 in 2300 ft
Summit Creek 16 in 1400 ft
Turnagain Pass 51 in 1880 ft

Coastal Water Temperatures

Place Temperature
No Stations Reporting

Earthquake Activity

City Distance Mag. Time & Date
No recent earthquake activity has been reported nearby.
Minimum magnitude displayed is 2.5.

Nearby Weather Stations

There are no personal weather stations in this area.

What do you think?

We're not finished. Please let us know what you like, what you don't like, and what you are still missing.